Strona główna
METAR-TAF:

METAR-TAF

Lotnisko :

Port lotniczy Paryż-Roissy-Charles de Gaulle

Paryż-Charles de Gaulle, Francja

Szerokość geograficzna: 49-01N, Długość geograficzna: 002-32E, wysokość: 118 m

Aktualna obserwacja pogody

Raport powstał 15 minut temu, godzina 00:00 UTC
Wiatr 6 kt od północno-północny wschód
Temperatura 14°C
Wilgotność 77%
Ciśnienie 1024 hPa
Widzialność 10 km lub więcej
Brak chmur poniżej 1500 m i brak chmur cumulonimbus

METAR: LFPG 250000Z 02006KT CAVOK 14/10 Q1024 NOSIG

czas: 02:15 (00:15 UTC)

Prognoza

Raport powstał 1 godzina i 15 minut temu, godzina 23:00 UTC
Prognoza ważna od 25 godzina 00 UTC do 26 godzina 06 UTC
Wiatr 6 kt od północ
Widzialność 10 km lub więcej
Brak chmur poniżej 1500 m i brak chmur cumulonimbus
Przejściowo
od 25 godzina 12 UTC do 25 godzina 18 UTC
Wiatr 10 kt od północno-północny wschód w porywach dochodzący do 20 kt

TAF: LFPG 242300Z 2500/2606 01006KT CAVOK TEMPO 2512/2518 03010G20KT TX25/2515Z TN13/2504Z

Obserwacja i prognoza pogody dla ponad 4000 lotnisk (raport METAR i TAF).

Dostępne stacje oznaczono żółtymi i czerwonymi punktami na mapie.

Najedź kursorem aby zobaczyć nazwę stacji.

Kliknij aby zobaczyć obserwacje i prognozy pogody.

Aby zmienić mapę: kliknij na zielony przycisk z czarnym krzyżykiem, aby powiększyć; na zielony przycisk z myślnikiem, aby pomniejszyć; na zielone strzałki, aby przejść do map sąsiednich.


METAR-TAF: